Time;durP1;ratioP1;P1;durP2;ratioP2;P2;SDS_P1;SDS_P2;PMS_P1;PMS_P2;Temp;Humidity;BMP_temperature;BMP_pressure;BME280_temperature;BME280_humidity;BME280_pressure;Samples;Min_cycle;Max_cycle;Signal;HPM_P1;HPM_P2
2024/04/04 00:02:25;;;;;;;5.30;2.70;;;;;;;10.88;86.44;100471.95;105773;1255;61407;-77
2024/04/04 00:05:00;;;;;;;3.60;2.20;;;;;;;10.85;87.50;100473.38;105847;1255;61578;-75
2024/04/04 00:07:27;;;;;;;;;;;;;;;10.82;88.20;100477.41;105943;1254;75722;-78
2024/04/04 00:09:54;;;;;;;5.00;2.40;;;;;;;10.79;89.24;100476.55;106343;1254;63675;-76
2024/04/04 00:12:21;;;;;;;3.80;2.30;;;;;;;10.75;90.63;100476.94;106055;1255;72887;-75
2024/04/04 00:14:48;;;;;;;6.10;2.70;;;;;;;10.72;91.71;100480.30;105782;1257;61166;-75
2024/04/04 00:17:15;;;;;;;4.10;2.20;;;;;;;10.68;92.68;100480.02;105794;1256;61126;-75
2024/04/04 00:19:41;;;;;;;9.20;3.10;;;;;;;10.65;93.98;100486.72;105854;1256;74762;-77
2024/04/04 00:22:08;;;;;;;6.30;2.90;;;;;;;10.60;95.80;100491.21;105781;1257;63777;-76
2024/04/04 00:24:35;;;;;;;19.60;5.00;;;;;;;10.55;96.97;100492.22;105885;1254;72536;-77
2024/04/04 00:27:02;;;;;;;7.40;3.30;;;;;;;10.50;98.58;100489.37;106029;1255;61243;-78
2024/04/04 00:29:42;;;;;;;4.90;2.80;;;;;;;10.45;100.00;100485.50;105975;1253;61917;-76
2024/04/04 00:32:08;;;;;;;6.80;3.00;;;;;;;10.40;100.00;100486.35;105772;1252;61251;-75
2024/04/04 00:34:35;;;;;;;6.10;3.00;;;;;;;10.34;100.00;100481.95;105800;1257;63815;-76
2024/04/04 00:37:04;;;;;;;5.90;3.40;;;;;;;10.30;100.00;100480.11;105875;1254;72722;-77
2024/04/04 00:39:31;;;;;;;5.50;3.00;;;;;;;10.28;100.00;100484.79;105761;1255;61356;-76
2024/04/04 00:41:58;;;;;;;5.60;2.80;;;;;;;10.24;100.00;100485.50;105846;1257;61317;-77
2024/04/04 00:44:25;;;;;;;7.20;2.80;;;;;;;10.22;100.00;100485.80;105767;1256;74732;-77
2024/04/04 00:46:53;;;;;;;6.80;3.00;;;;;;;10.21;100.00;100490.12;105797;1256;63674;-77
2024/04/04 00:49:20;;;;;;;11.80;3.30;;;;;;;10.17;100.00;100491.18;105997;1253;71606;-74
2024/04/04 00:51:48;;;;;;;6.10;3.00;;;;;;;10.14;100.00;100488.03;105998;1254;61201;-77
2024/04/04 00:54:15;;;;;;;6.30;3.40;;;;;;;10.11;100.00;100486.33;105819;1257;61168;-75
2024/04/04 00:56:42;;;;;;;10.00;4.60;;;;;;;10.07;100.00;100484.60;105974;1257;74351;-76
2024/04/04 00:59:12;;;;;;;5.80;3.00;;;;;;;10.05;100.00;100490.34;105954;1254;61205;-77
2024/04/04 01:01:42;;;;;;;10.20;3.60;;;;;;;10.02;100.00;100494.16;105976;1254;71757;-74
2024/04/04 01:04:09;;;;;;;11.80;3.20;;;;;;;10.00;100.00;100496.71;105870;1254;61263;-77
2024/04/04 01:06:37;;;;;;;7.80;3.50;;;;;;;9.98;100.00;100495.96;105765;1255;61200;-75
2024/04/04 01:09:04;;;;;;;6.60;3.50;;;;;;;9.95;100.00;100494.59;105878;1255;74683;-78
2024/04/04 01:11:31;;;;;;;9.10;3.90;;;;;;;9.90;100.00;100492.42;105896;1256;63935;-76
2024/04/04 01:13:57;;;;;;;10.10;3.20;;;;;;;9.84;100.00;100485.31;105934;1254;72609;-77
2024/04/04 01:16:24;;;;;;;6.30;3.60;;;;;;;9.79;100.00;100489.77;105624;1257;61135;-77
2024/04/04 01:18:50;;;;;;;7.40;3.10;;;;;;;9.75;100.00;100493.83;105926;1254;61366;-75
2024/04/04 01:21:18;;;;;;;7.60;3.60;;;;;;;9.71;100.00;100488.67;105802;1254;74791;-76
2024/04/04 01:23:44;;;;;;;7.40;3.80;;;;;;;9.67;100.00;100491.35;105933;1256;63648;-76
2024/04/04 01:26:14;;;;;;;8.80;3.40;;;;;;;9.63;100.00;100488.45;105841;1254;72602;-76
2024/04/04 01:28:40;;;;;;;5.30;3.30;;;;;;;9.59;100.00;100489.05;105972;1256;61433;-77
2024/04/04 01:31:07;;;;;;;6.80;3.20;;;;;;;9.55;100.00;100487.49;105854;1254;61209;-76
2024/04/04 01:33:34;;;;;;;8.10;4.00;;;;;;;9.52;100.00;100489.38;106063;1253;74521;-75
2024/04/04 01:36:00;;;;;;;7.20;2.90;;;;;;;9.50;100.00;100492.70;106169;1255;61254;-76
2024/04/04 01:38:28;;;;;;;7.70;3.10;;;;;;;9.47;100.00;100489.89;105890;1257;72477;-77
2024/04/04 01:40:55;;;;;;;9.30;2.90;;;;;;;9.43;100.00;100496.39;105963;1255;61333;-74
2024/04/04 01:43:22;;;;;;;12.40;3.00;;;;;;;9.38;100.00;100500.53;105974;1256;61231;-78
2024/04/04 01:45:49;;;;;;;7.20;2.60;;;;;;;9.31;100.00;100501.59;105931;1254;74335;-75
2024/04/04 01:48:16;;;;;;;4.30;2.70;;;;;;;9.25;100.00;100499.69;105691;1257;63661;-77
2024/04/04 01:50:43;;;;;;;6.20;3.00;;;;;;;9.19;100.00;100503.39;105774;1254;61352;-77
2024/04/04 01:53:09;;;;;;;8.90;3.50;;;;;;;9.12;100.00;100508.05;105730;1255;61346;-76
2024/04/04 01:55:36;;;;;;;12.50;5.40;;;;;;;9.06;100.00;100503.88;105921;1256;61242;-75
2024/04/04 01:58:03;;;;;;;17.90;8.20;;;;;;;9.01;100.00;100504.88;105849;1256;74621;-77
2024/04/04 02:00:30;;;;;;;6.40;3.40;;;;;;;8.97;100.00;100506.85;105819;1256;63830;-76
2024/04/04 02:02:58;;;;;;;7.30;3.40;;;;;;;8.92;100.00;100507.98;105873;1252;71713;-75
2024/04/04 02:05:24;;;;;;;7.20;3.20;;;;;;;8.87;100.00;100500.38;105905;1252;62897;-76
2024/04/04 02:07:51;;;;;;;4.70;3.10;;;;;;;8.84;100.00;100498.99;105758;1256;61215;-75
2024/04/04 02:10:17;;;;;;;5.40;3.00;;;;;;;8.81;100.00;100498.98;105781;1253;74625;-77
2024/04/04 02:12:44;;;;;;;5.40;2.40;;;;;;;8.77;100.00;100495.70;105846;1255;62841;-74
2024/04/04 02:15:12;;;;;;;8.70;3.00;;;;;;;8.75;100.00;100499.67;105850;1253;72695;-76
2024/04/04 02:17:40;;;;;;;4.80;2.70;;;;;;;8.73;100.00;100504.14;105918;1255;61235;-75
2024/04/04 02:20:10;;;;;;;7.40;2.60;;;;;;;8.70;100.00;100506.20;106226;1255;61165;-75
2024/04/04 02:22:37;;;;;;;10.40;2.50;;;;;;;8.68;100.00;100507.14;106216;1255;74653;-76
2024/04/04 02:25:05;;;;;;;9.10;3.80;;;;;;;8.67;100.00;100508.95;105914;1255;64004;-77
2024/04/04 02:27:33;;;;;;;4.90;2.60;;;;;;;8.66;100.00;100509.73;105887;1256;72647;-76
2024/04/04 02:30:01;;;;;;;4.10;2.20;;;;;;;8.64;100.00;100511.39;105821;1256;61151;-76
2024/04/04 02:32:28;;;;;;;6.80;2.20;;;;;;;8.62;100.00;100508.55;105820;1253;61338;-76
2024/04/04 02:34:55;;;;;;;4.50;2.60;;;;;;;8.59;100.00;100510.11;105809;1256;74718;-75
2024/04/04 02:37:21;;;;;;;4.70;2.60;;;;;;;8.56;100.00;100515.65;105853;1256;63587;-75
2024/04/04 02:39:48;;;;;;;4.60;2.70;;;;;;;8.53;100.00;100519.65;105772;1254;72725;-76
2024/04/04 02:42:15;;;;;;;5.80;2.70;;;;;;;8.52;100.00;100522.70;105780;1255;61174;-74
2024/04/04 02:44:41;;;;;;;6.60;2.80;;;;;;;8.50;100.00;100522.21;105787;1253;61336;-75
2024/04/04 02:47:08;;;;;;;6.10;2.60;;;;;;;8.49;100.00;100521.77;105790;1252;61227;-75
2024/04/04 02:49:34;;;;;;;6.70;2.50;;;;;;;8.49;100.00;100523.67;105762;1254;61443;-78
2024/04/04 02:52:01;;;;;;;6.20;2.70;;;;;;;8.49;100.00;100524.91;105947;1252;73164;-78
2024/04/04 02:54:28;;;;;;;5.20;2.70;;;;;;;8.49;100.00;100523.52;105814;1255;61236;-75
2024/04/04 02:56:54;;;;;;;5.40;2.10;;;;;;;8.49;100.00;100531.35;105950;1253;61235;-77
2024/04/04 02:59:21;;;;;;;5.30;2.40;;;;;;;8.48;100.00;100537.16;105773;1256;74791;-75
2024/04/04 03:01:48;;;;;;;5.30;2.50;;;;;;;8.46;100.00;100544.57;105969;1256;63908;-75
2024/04/04 03:04:14;;;;;;;4.80;2.50;;;;;;;8.44;100.00;100546.60;106273;1253;72695;-75
2024/04/04 03:06:42;;;;;;;3.40;2.70;;;;;;;8.42;100.00;100548.26;105768;1252;61358;-76
2024/04/04 03:09:09;;;;;;;8.00;3.60;;;;;;;8.41;100.00;100545.20;105825;1253;61231;-77
2024/04/04 03:11:36;;;;;;;5.80;2.50;;;;;;;8.40;100.00;100544.70;105754;1252;73233;-76
2024/04/04 03:14:03;;;;;;;6.40;2.50;;;;;;;8.40;100.00;100545.06;105860;1255;62324;-76
2024/04/04 03:16:30;;;;;;;6.30;2.80;;;;;;;8.39;100.00;100550.52;105740;1254;72600;-77
2024/04/04 03:18:56;;;;;;;4.30;3.10;;;;;;;8.39;100.00;100548.27;105909;1252;61155;-76
2024/04/04 03:21:23;;;;;;;6.00;3.10;;;;;;;8.39;100.00;100545.63;106307;1252;61139;-77
2024/04/04 03:23:50;;;;;;;12.00;4.00;;;;;;;8.39;100.00;100547.36;106118;1254;74672;-74
2024/04/04 03:26:17;;;;;;;6.60;2.80;;;;;;;8.38;100.00;100544.30;105940;1256;63845;-76
2024/04/04 03:28:44;;;;;;;6.90;3.10;;;;;;;8.34;100.00;100546.42;105913;1251;72674;-77
2024/04/04 03:31:11;;;;;;;4.50;2.20;;;;;;;8.30;100.00;100543.29;105961;1251;61276;-76
2024/04/04 03:33:38;;;;;;;6.50;2.80;;;;;;;8.29;100.00;100536.52;107140;1251;61139;-76
2024/04/04 03:36:05;;;;;;;5.70;2.50;;;;;;;8.33;100.00;100543.86;109206;1251;74369;-75
2024/04/04 03:38:34;;;;;;;7.40;2.30;;;;;;;8.36;100.00;100539.53;107330;1252;62676;-75
2024/04/04 03:41:05;;;;;;;9.40;3.10;;;;;;;8.40;100.00;100538.27;105941;1251;73899;-76
2024/04/04 03:43:32;;;;;;;9.60;3.80;;;;;;;8.45;100.00;100540.45;105873;1251;61234;-76
2024/04/04 03:46:03;;;;;;;5.40;2.10;;;;;;;8.55;100.00;100537.48;105921;1251;61362;-76
2024/04/04 03:48:32;;;;;;;10.50;2.50;;;;;;;8.67;100.00;100537.92;106049;1251;74664;-74
2024/04/04 03:50:59;;;;;;;6.60;2.80;;;;;;;8.77;100.00;100526.41;105907;1251;62848;-77
2024/04/04 03:53:25;;;;;;;3.70;2.40;;;;;;;8.91;100.00;100525.27;105937;1251;72741;-77
2024/04/04 03:55:52;;;;;;;7.00;2.40;;;;;;;9.04;100.00;100524.02;105997;1257;61369;-76
2024/04/04 03:58:28;;;;;;;4.00;2.10;;;;;;;9.14;100.00;100523.48;105742;1251;61235;-77
2024/04/04 04:00:55;;;;;;;7.80;2.50;;;;;;;9.17;100.00;100518.81;105848;1252;74786;-75
2024/04/04 04:03:22;;;;;;;6.80;2.90;;;;;;;9.19;100.00;100515.05;105748;1251;62023;-77
2024/04/04 04:05:50;;;;;;;4.20;2.40;;;;;;;9.28;100.00;100511.75;105870;1251;72724;-77
2024/04/04 04:08:17;;;;;;;4.80;2.50;;;;;;;9.42;100.00;100506.23;105882;1253;62038;-77
2024/04/04 04:10:44;;;;;;;9.40;2.40;;;;;;;9.59;100.00;100506.46;105795;1256;61224;-76
2024/04/04 04:13:13;;;;;;;3.50;2.30;;;;;;;9.78;100.00;100504.88;105854;1253;74586;-76
2024/04/04 04:15:40;;;;;;;5.60;2.00;;;;;;;9.92;100.00;100506.63;105807;1251;63875;-76
2024/04/04 04:18:07;;;;;;;6.00;2.30;;;;;;;10.01;100.00;100511.35;105914;1251;72728;-78
2024/04/04 04:23:22;;;;;;;5.10;2.60;;;;;;;10.12;100.00;100512.45;105811;1251;61360;-76
2024/04/04 04:25:49;;;;;;;5.80;2.40;;;;;;;10.16;100.00;100513.94;105876;1251;74630;-77
2024/04/04 04:28:16;;;;;;;4.60;2.10;;;;;;;10.16;100.00;100519.35;105893;1256;62487;-78
2024/04/04 04:30:44;;;;;;;4.40;2.20;;;;;;;10.15;100.00;100526.55;106074;1251;71481;-76
2024/04/04 04:33:11;;;;;;;7.70;2.90;;;;;;;10.20;100.00;100535.23;106187;1256;61347;-77
2024/04/04 04:35:38;;;;;;;5.30;2.70;;;;;;;10.31;100.00;100539.45;105762;1251;61235;-76
2024/04/04 04:38:05;;;;;;;5.20;2.80;;;;;;;10.45;100.00;100539.85;105973;1251;74655;-76
2024/04/04 04:40:32;;;;;;;8.60;3.20;;;;;;;10.58;100.00;100546.39;105873;1251;63811;-77
2024/04/04 04:42:58;;;;;;;6.90;2.00;;;;;;;10.73;100.00;100551.41;105740;1255;61196;-75
2024/04/04 04:45:25;;;;;;;7.30;2.90;;;;;;;10.90;100.00;100549.50;105852;1251;61235;-75
2024/04/04 04:47:51;;;;;;;4.10;2.70;;;;;;;11.09;100.00;100545.35;105759;1251;61233;-75
2024/04/04 04:50:18;;;;;;;5.20;2.50;;;;;;;11.31;100.00;100542.52;105907;1255;61356;-77
2024/04/04 04:52:45;;;;;;;5.40;2.40;;;;;;;11.59;100.00;100544.06;106109;1255;63956;-75
2024/04/04 04:55:13;;;;;;;7.80;2.30;;;;;;;11.89;100.00;100548.89;105767;1251;72775;-75
2024/04/04 04:57:41;;;;;;;10.90;3.00;;;;;;;12.20;100.00;100558.39;106000;1256;61350;-76
2024/04/04 05:00:11;;;;;;;6.40;2.70;;;;;;;12.55;100.00;100559.88;105926;1251;61443;-78
2024/04/04 05:02:38;;;;;;;7.10;2.00;;;;;;;12.99;99.78;100552.41;105988;1256;74631;-78
2024/04/04 05:05:13;;;;;;;9.20;1.90;;;;;;;13.48;94.00;100550.84;105856;1255;62325;-77
2024/04/04 05:07:41;;;;;;;3.80;1.70;;;;;;;14.08;85.56;100556.94;105966;1251;72890;-75
2024/04/04 05:10:10;;;;;;;3.90;1.80;;;;;;;14.66;77.14;100564.15;105915;1252;61305;-78
2024/04/04 05:12:37;;;;;;;3.10;1.70;;;;;;;15.24;70.69;100561.32;106469;1252;61217;-77
2024/04/04 05:15:07;;;;;;;6.10;1.80;;;;;;;15.82;63.51;100559.05;105987;1254;74464;-76
2024/04/04 05:17:33;;;;;;;6.30;2.40;;;;;;;16.27;58.74;100567.33;106609;1251;62667;-76
2024/04/04 05:20:00;;;;;;;8.90;1.70;;;;;;;16.64;55.94;100565.50;105890;1251;72543;-78
2024/04/04 05:22:27;;;;;;;13.60;2.30;;;;;;;17.05;53.83;100565.02;105920;1255;61232;-77
2024/04/04 05:24:54;;;;;;;4.80;2.20;;;;;;;17.46;52.49;100563.30;105813;1251;61205;-79
2024/04/04 05:27:22;;;;;;;6.20;2.40;;;;;;;17.87;51.82;100559.59;106035;1256;74766;-76
2024/04/04 05:29:52;;;;;;;5.60;2.00;;;;;;;18.28;50.02;100559.02;105903;1253;63785;-79
2024/04/04 05:32:19;;;;;;;6.90;2.70;;;;;;;18.70;48.94;100560.77;105843;1255;72683;-76
2024/04/04 05:34:48;;;;;;;5.50;2.20;;;;;;;19.13;47.42;100566.70;105829;1258;61375;-79
2024/04/04 05:37:15;;;;;;;7.90;2.60;;;;;;;19.59;45.42;100567.85;105866;1254;61330;-77
2024/04/04 05:39:41;;;;;;;5.10;2.30;;;;;;;20.00;43.84;100569.90;105851;1251;74674;-78
2024/04/04 05:42:08;;;;;;;5.60;2.80;;;;;;;20.35;42.76;100568.29;105854;1255;63934;-77
2024/04/04 05:44:35;;;;;;;11.60;5.00;;;;;;;20.62;40.04;100564.04;105799;1256;72741;-79
2024/04/04 05:47:02;;;;;;;11.50;6.00;;;;;;;20.81;39.17;100569.48;105828;1255;61212;-77
2024/04/04 05:49:30;;;;;;;10.40;6.50;;;;;;;20.94;38.36;100562.90;105898;1251;61328;-78
2024/04/04 05:51:57;;;;;;;13.90;7.30;;;;;;;21.13;37.86;100560.45;105929;1251;72374;-78
2024/04/04 05:54:24;;;;;;;14.20;7.00;;;;;;;21.35;37.34;100558.38;105884;1255;63897;-77
2024/04/04 05:56:51;;;;;;;9.20;5.90;;;;;;;21.65;36.89;100553.44;105946;1256;71982;-78
2024/04/04 05:59:18;;;;;;;8.20;5.00;;;;;;;21.89;35.86;100556.75;106065;1251;61256;-77
2024/04/04 06:01:44;;;;;;;10.30;3.50;;;;;;;22.04;35.54;100556.84;106081;1251;61435;-78
2024/04/04 06:04:12;;;;;;;7.30;2.80;;;;;;;22.20;34.91;100553.84;105872;1251;75432;-79
2024/04/04 06:06:41;;;;;;;8.50;1.70;;;;;;;22.40;34.21;100552.57;105863;1255;64055;-79
2024/04/04 06:09:09;;;;;;;4.10;1.60;;;;;;;22.63;34.01;100554.14;105845;1251;72605;-80
2024/04/04 06:11:35;;;;;;;7.50;1.70;;;;;;;22.82;34.04;100553.06;106001;1255;61188;-79
2024/04/04 06:14:02;;;;;;;7.10;1.80;;;;;;;22.99;33.46;100551.09;106054;1251;61142;-79
2024/04/04 06:16:29;;;;;;;4.40;2.20;;;;;;;23.17;33.15;100548.95;106146;1251;75959;-79
2024/04/04 06:18:56;;;;;;;4.10;1.70;;;;;;;23.31;32.66;100546.55;106051;1251;65149;-80
2024/04/04 06:21:23;;;;;;;5.20;2.00;;;;;;;23.41;32.54;100545.44;105994;1253;71998;-79
2024/04/04 06:23:50;;;;;;;3.10;1.80;;;;;;;23.50;32.51;100545.86;106044;1251;61216;-78
2024/04/04 06:26:17;;;;;;;6.90;1.70;;;;;;;23.61;32.63;100544.73;106126;1252;61189;-79
2024/04/04 06:28:46;;;;;;;4.30;1.10;;;;;;;23.82;32.23;100546.43;106065;1251;75908;-79
2024/04/04 06:31:13;;;;;;;5.60;2.30;;;;;;;23.97;31.41;100538.66;108072;1251;63529;-77
2024/04/04 06:33:41;;;;;;;7.30;4.90;;;;;;;24.07;31.24;100540.37;109046;1251;73682;-76
2024/04/04 06:36:08;;;;;;;10.20;4.40;;;;;;;24.08;30.74;100539.00;107218;1255;61215;-78
2024/04/04 06:38:35;;;;;;;6.80;1.90;;;;;;;24.15;30.78;100545.18;106112;1253;61270;-78
2024/04/04 06:41:02;;;;;;;5.60;1.50;;;;;;;24.26;30.58;100544.38;105897;1253;74732;-77
2024/04/04 06:43:29;;;;;;;5.60;1.90;;;;;;;24.59;30.52;100549.33;105913;1255;64332;-78
2024/04/04 06:45:57;;;;;;;3.10;1.90;;;;;;;24.86;29.93;100547.05;105941;1251;71411;-76
2024/04/04 06:48:24;;;;;;;4.60;1.60;;;;;;;24.85;29.82;100548.06;106151;1251;61166;-79
2024/04/04 06:50:51;;;;;;;4.80;1.40;;;;;;;24.69;30.17;100549.42;105897;1251;61257;-78
2024/04/04 06:53:17;;;;;;;3.10;1.20;;;;;;;24.59;30.29;100548.51;105613;1251;232621;-78
2024/04/04 06:57:16;;;;;;;3.30;1.00;;;;;;;24.48;29.74;100543.46;102514;1292;601098;-78
2024/04/04 06:59:44;;;;;;;2.60;1.50;;;;;;;24.54;29.79;100543.96;104838;1266;59746;-79
2024/04/04 07:02:12;;;;;;;2.40;1.30;;;;;;;24.83;29.79;100551.13;104993;1265;59806;-79
2024/04/04 07:04:39;;;;;;;3.10;1.10;;;;;;;25.24;29.91;100549.92;104899;1270;73170;-80
2024/04/04 07:07:06;;;;;;;5.30;1.20;;;;;;;25.69;28.90;100541.62;104880;1267;65174;-78
2024/04/04 07:09:34;;;;;;;3.20;1.70;;;;;;;26.06;28.11;100541.34;104876;1267;73279;-80
2024/04/04 07:12:01;;;;;;;3.40;1.50;;;;;;;26.40;27.67;100544.04;104801;1263;204307;-79
2024/04/04 07:14:29;;;;;;;4.20;1.20;;;;;;;26.81;26.69;100538.64;104981;1263;60864;-78
2024/04/04 07:16:58;;;;;;;5.30;1.10;;;;;;;27.06;26.52;100541.71;104904;1263;72643;-79
2024/04/04 07:19:25;;;;;;;5.20;1.30;;;;;;;27.32;26.51;100540.06;105041;1262;64595;-80
2024/04/04 07:21:54;;;;;;;2.20;1.30;;;;;;;27.63;26.00;100540.23;104973;1263;72731;-81
2024/04/04 07:24:21;;;;;;;5.10;0.70;;;;;;;27.94;25.19;100538.19;105633;1256;63654;-79
2024/04/04 07:26:48;;;;;;;5.50;1.00;;;;;;;28.26;24.60;100539.82;105663;1257;60424;-78
2024/04/04 07:29:16;;;;;;;11.00;1.00;;;;;;;28.53;24.45;100542.77;105968;1253;73724;-78
2024/04/04 07:31:44;;;;;;;1.60;0.70;;;;;;;28.93;24.12;100545.52;105694;1257;65418;-80
2024/04/04 07:34:11;;;;;;;2.20;0.90;;;;;;;29.30;23.47;100538.59;105655;1254;71193;-79
2024/04/04 07:36:39;;;;;;;10.30;1.70;;;;;;;29.53;22.65;100535.20;105749;1254;61157;-79
2024/04/04 07:39:06;;;;;;;3.50;0.90;;;;;;;29.60;22.02;100531.02;105753;1257;61647;-80
2024/04/04 07:41:33;;;;;;;8.90;1.00;;;;;;;29.66;21.63;100530.56;105816;1254;76426;-79
2024/04/04 07:44:01;;;;;;;8.20;1.00;;;;;;;29.73;21.57;100529.27;105937;1253;62732;-78
2024/04/04 07:46:28;;;;;;;8.40;0.90;;;;;;;29.78;21.48;100522.13;105827;1254;71224;-77
2024/04/04 07:48:56;;;;;;;8.40;1.40;;;;;;;29.72;21.68;100521.38;105832;1257;60588;-77
2024/04/04 07:51:25;;;;;;;3.90;0.80;;;;;;;29.68;21.13;100513.27;105649;1258;60373;-79
2024/04/04 07:53:53;;;;;;;8.90;1.10;;;;;;;29.77;21.41;100514.95;105714;1254;73936;-76
2024/04/04 07:56:21;;;;;;;2.00;0.70;;;;;;;29.97;21.01;100516.92;105709;1257;63982;-79
2024/04/04 07:58:48;;;;;;;0.80;0.40;;;;;;;30.05;20.52;100512.35;105693;1257;73335;-80
2024/04/04 08:01:17;;;;;;;1.00;0.50;;;;;;;30.11;20.78;100503.42;105687;1257;61059;-81
2024/04/04 08:03:47;;;;;;;4.20;0.70;;;;;;;30.31;20.32;100508.36;105808;1252;60519;-78
2024/04/04 08:06:14;;;;;;;4.70;0.80;;;;;;;30.54;19.34;100500.77;105710;1253;73279;-79
2024/04/04 08:08:42;;;;;;;20.40;1.50;;;;;;;30.73;18.75;100497.44;105638;1254;63693;-76
2024/04/04 08:11:12;;;;;;;4.20;0.50;;;;;;;30.76;18.44;100503.32;105646;1254;71338;-80
2024/04/04 08:13:40;;;;;;;2.10;0.50;;;;;;;30.78;18.70;100498.17;105960;1256;64138;-80
2024/04/04 08:16:08;;;;;;;3.10;0.90;;;;;;;30.99;18.59;100498.34;105958;1255;60471;-79
2024/04/04 08:18:36;;;;;;;6.40;0.90;;;;;;;31.12;18.27;100497.77;105974;1251;73359;-79
2024/04/04 08:21:04;;;;;;;9.00;0.40;;;;;;;31.17;18.21;100493.19;106116;1257;62959;-79
2024/04/04 08:23:31;;;;;;;3.30;0.50;;;;;;;31.29;18.10;100491.14;105772;1253;74087;-81
2024/04/04 08:25:59;;;;;;;4.50;1.00;;;;;;;31.46;18.27;100484.86;105687;1251;60659;-80
2024/04/04 08:28:27;;;;;;;11.50;1.30;;;;;;;31.59;17.87;100480.70;105799;1251;60454;-78
2024/04/04 08:31:02;;;;;;;29.70;2.90;;;;;;;31.60;17.86;100479.63;105851;1256;72836;-80
2024/04/04 08:33:30;;;;;;;8.60;0.70;;;;;;;31.43;17.89;100481.77;105889;1252;63555;-78
2024/04/04 08:35:58;;;;;;;4.70;0.50;;;;;;;31.35;18.24;100481.34;105687;1257;73618;-79
2024/04/04 08:38:28;;;;;;;1.50;0.50;;;;;;;31.38;18.27;100480.16;105729;1257;60553;-80
2024/04/04 08:40:57;;;;;;;6.20;0.70;;;;;;;31.35;17.92;100473.36;109556;1251;62472;-78
2024/04/04 08:43:24;;;;;;;9.50;1.40;;;;;;;31.17;17.88;100468.03;109529;1251;74604;-79
2024/04/04 08:45:52;;;;;;;7.20;1.60;;;;;;;30.92;17.89;100468.17;109550;1251;63157;-80
2024/04/04 08:48:20;;;;;;;2.30;0.50;;;;;;;30.79;18.49;100473.41;109525;1251;75014;-79
2024/04/04 08:50:48;;;;;;;4.90;0.40;;;;;;;31.01;18.75;100468.89;109479;1255;59796;-77
2024/04/04 08:53:22;;;;;;;2.60;0.60;;;;;;;31.35;18.25;100470.92;109486;1251;58597;-78
2024/04/04 08:55:51;;;;;;;1.90;0.60;;;;;;;31.49;18.09;100466.25;109539;1253;74922;-77
2024/04/04 08:58:18;;;;;;;3.50;0.40;;;;;;;31.46;17.94;100465.85;109560;1251;65008;-76
2024/04/04 09:00:46;;;;;;;4.70;0.60;;;;;;;31.47;17.25;100470.48;109558;1253;73783;-77
2024/04/04 09:03:13;;;;;;;3.30;0.20;;;;;;;31.59;17.10;100464.86;109628;1251;61082;-79
2024/04/04 09:05:48;;;;;;;2.10;0.40;;;;;;;31.69;16.63;100460.85;109516;1253;62628;-79
2024/04/04 09:08:16;;;;;;;1.80;0.20;;;;;;;31.84;17.04;100457.83;109501;1253;72948;-80
2024/04/04 09:10:45;;;;;;;4.20;0.60;;;;;;;32.01;16.47;100457.33;109527;1251;64999;-80
2024/04/04 09:13:13;;;;;;;5.80;0.70;;;;;;;32.12;16.39;100456.75;109506;1253;75479;-77
2024/04/04 09:15:41;;;;;;;2.90;0.40;;;;;;;32.27;16.49;100457.50;109588;1252;61028;-77
2024/04/04 09:18:10;;;;;;;24.70;1.30;;;;;;;32.38;16.20;100457.28;109537;1253;59818;-80
2024/04/04 09:20:38;;;;;;;10.30;1.00;;;;;;;32.36;16.02;100446.71;109569;1253;74512;-78
2024/04/04 09:23:09;;;;;;;4.80;0.60;;;;;;;32.17;15.76;100452.23;109547;1253;63789;-77
2024/04/04 09:25:37;;;;;;;14.20;0.90;;;;;;;31.98;15.76;100449.63;109528;1253;72496;-78
2024/04/04 09:28:05;;;;;;;6.40;0.30;;;;;;;31.97;15.59;100449.31;109560;1253;60637;-78
2024/04/04 09:30:32;;;;;;;8.80;0.50;;;;;;;31.87;15.72;100445.44;109841;1251;58754;-77
2024/04/04 09:33:00;;;;;;;0.50;0.30;;;;;;;31.68;16.04;100449.98;109637;1251;76439;-79
2024/04/04 09:35:27;;;;;;;4.80;0.40;;;;;;;31.61;16.44;100447.81;109591;1252;64022;-77
2024/04/04 09:37:55;;;;;;;3.30;0.30;;;;;;;31.46;16.31;100445.45;109488;1251;72501;-78
2024/04/04 09:40:22;;;;;;;1.40;0.30;;;;;;;31.13;16.39;100442.63;109380;1253;59459;-77
2024/04/04 09:42:50;;;;;;;1.40;0.30;;;;;;;30.72;16.75;100443.98;109526;1252;60394;-79
2024/04/04 09:45:17;;;;;;;2.50;0.20;;;;;;;30.43;17.43;100437.16;109549;1252;74646;-78
2024/04/04 09:47:45;;;;;;;4.50;0.40;;;;;;;30.31;17.63;100440.45;109546;1251;65382;-77
2024/04/04 09:50:19;;;;;;;2.30;0.30;;;;;;;30.08;17.66;100443.86;109547;1253;73601;-79
2024/04/04 09:52:48;;;;;;;1.00;0.40;;;;;;;29.93;18.30;100444.95;109528;1253;61705;-78
2024/04/04 09:55:18;;;;;;;6.10;0.70;;;;;;;29.89;17.90;100434.12;109535;1252;59025;-77
2024/04/04 09:57:45;;;;;;;3.10;0.30;;;;;;;30.00;18.03;100429.73;109576;1253;73695;-77
2024/04/04 10:00:16;;;;;;;5.40;0.50;;;;;;;30.17;18.29;100431.15;109616;1253;63468;-80
2024/04/04 10:02:48;;;;;;;2.80;0.40;;;;;;;30.26;17.68;100434.34;109607;1253;74865;-78
2024/04/04 10:05:15;;;;;;;6.40;0.50;;;;;;;30.29;17.71;100432.05;109575;1252;60887;-77
2024/04/04 10:07:44;;;;;;;7.90;0.80;;;;;;;30.23;17.10;100423.31;109608;1253;62488;-79
2024/04/04 10:10:22;;;;;;;6.00;0.40;;;;;;;30.11;17.10;100426.65;109598;1253;73596;-78
2024/04/04 10:12:53;;;;;;;5.30;0.60;;;;;;;29.94;17.91;100425.46;109627;1253;62870;-77
2024/04/04 10:15:22;;;;;;;1.50;0.40;;;;;;;29.83;17.96;100428.91;109620;1252;72455;-78
2024/04/04 10:17:50;;;;;;;2.30;0.40;;;;;;;29.75;18.18;100423.45;109591;1253;59090;-78
2024/04/04 10:20:20;;;;;;;9.60;0.60;;;;;;;29.79;17.79;100405.95;109580;1253;61108;-78
2024/04/04 10:23:05;;;;;;;8.40;0.50;;;;;;;29.91;17.96;100419.30;109596;1252;73254;-77
2024/04/04 10:25:40;;;;;;;4.80;0.50;;;;;;;30.12;18.30;100423.84;109609;1253;61701;-77
2024/04/04 10:28:11;;;;;;;9.00;1.60;;;;;;;30.08;18.44;100423.36;109580;1252;72102;-77
2024/04/04 10:30:41;;;;;;;2.70;0.50;;;;;;;29.87;18.92;100419.46;109572;1253;59391;-78
2024/04/04 10:33:11;;;;;;;1.20;0.20;;;;;;;29.84;19.41;100422.48;109613;1254;60334;-77
2024/04/04 10:35:39;;;;;;;1.70;0.30;;;;;;;29.74;19.31;100426.34;109597;1252;75785;-77
2024/04/04 10:38:11;;;;;;;4.50;0.40;;;;;;;29.48;19.08;100420.59;109598;1252;63653;-77
2024/04/04 10:40:41;;;;;;;2.90;0.40;;;;;;;29.01;19.37;100422.50;109620;1252;70619;-77
2024/04/04 10:43:09;;;;;;;1.30;0.20;;;;;;;28.48;19.87;100425.85;109560;1253;60036;-77
2024/04/04 10:45:36;;;;;;;1.50;0.80;;;;;;;28.00;20.02;100425.13;109656;1252;62309;-78
2024/04/04 10:48:04;;;;;;;4.20;0.60;;;;;;;27.56;20.14;100414.20;109598;1253;74399;-78
2024/04/04 10:50:32;;;;;;;2.30;0.70;;;;;;;27.34;20.48;100410.65;109572;1253;65563;-77
2024/04/04 10:53:00;;;;;;;2.80;0.40;;;;;;;27.29;21.16;100416.65;109588;1253;73149;-78
2024/04/04 10:55:28;;;;;;;0.90;0.30;;;;;;;27.32;21.59;100419.61;109521;1252;59887;-78
2024/04/04 10:57:55;;;;;;;3.60;0.20;;;;;;;27.36;21.27;100417.27;109292;1251;59012;-76
2024/04/04 11:00:28;;;;;;;10.10;0.80;;;;;;;27.24;21.39;100416.19;109562;1255;74819;-77
2024/04/04 11:02:58;;;;;;;8.80;0.80;;;;;;;27.11;21.46;100411.10;109556;1251;62324;-78
2024/04/04 11:05:25;;;;;;;5.30;1.20;;;;;;;26.91;21.46;100416.26;109532;1251;72197;-78
2024/04/04 11:08:00;;;;;;;13.50;0.70;;;;;;;26.63;21.85;100423.75;109527;1251;62486;-76
2024/04/04 11:10:27;;;;;;;1.70;0.30;;;;;;;26.35;22.11;100420.73;109628;1253;59887;-77
2024/04/04 11:12:55;;;;;;;3.50;0.60;;;;;;;26.09;22.51;100420.15;109447;1251;73097;-77
2024/04/04 11:15:24;;;;;;;2.10;0.70;;;;;;;25.90;22.90;100416.33;109596;1251;65010;-76
2024/04/04 11:17:52;;;;;;;1.60;0.60;;;;;;;25.85;23.36;100416.55;109305;1251;71347;-78
2024/04/04 11:20:20;;;;;;;3.50;0.50;;;;;;;25.87;23.26;100413.27;109545;1251;60178;-78
2024/04/04 11:22:47;;;;;;;2.60;0.40;;;;;;;25.82;23.29;100413.11;109604;1251;58938;-78